createdAt,value
2019-05-21T03:03:42.976Z,100347.09
2019-05-21T03:41:58.522Z,100393.14
2019-05-21T03:51:57.150Z,100394.39
2019-05-21T03:56:33.151Z,100389.94
2019-05-21T04:12:20.017Z,100404.70
2019-05-21T06:49:10.202Z,100482.60
2019-05-21T07:53:58.767Z,100548.66
2019-05-21T07:58:23.245Z,100553.69
2019-05-21T08:02:47.801Z,100553.69
2019-05-21T08:07:12.545Z,100565.11
2019-05-21T08:11:38.342Z,100559.63
2019-05-21T08:16:03.045Z,100564.59
2019-05-21T08:20:27.487Z,100564.59
2019-05-21T08:24:52.323Z,100575.20
2019-05-21T08:29:16.275Z,100587.38
2019-05-21T08:33:40.694Z,100583.11
2019-05-21T08:38:06.899Z,100593.16
2019-05-21T08:42:30.916Z,100596.87
2019-05-21T08:46:55.205Z,100598.41
2019-05-21T08:51:19.330Z,100594.37
2019-05-21T08:55:43.207Z,100596.73
2019-05-21T09:00:09.255Z,100589.91
2019-05-21T09:04:46.011Z,100590.73
2019-05-21T09:09:00.072Z,100590.48
2019-05-21T09:13:24.242Z,100593.70
2019-05-21T09:17:48.140Z,100593.91
2019-05-21T09:22:12.112Z,100598.66
2019-05-21T09:26:36.605Z,100594.83
2019-05-21T09:31:01.825Z,100599.45
2019-05-21T09:35:26.870Z,100599.88
2019-05-21T09:39:50.860Z,100598.77
2019-05-21T09:44:15.054Z,100606.58
2019-05-21T09:48:39.168Z,100609.06
2019-05-21T09:53:03.070Z,100622.63
2019-05-21T09:57:37.221Z,100629.63
2019-05-21T10:02:07.064Z,100630.80
2019-05-21T10:06:31.298Z,100634.98
2019-05-21T10:10:55.479Z,100631.74
2019-05-21T10:15:19.870Z,100634.45
2019-05-21T10:19:43.730Z,100641.99
2019-05-21T10:24:08.007Z,100649.30
2019-05-21T10:28:32.128Z,100649.30
2019-05-21T10:32:56.096Z,100657.97
2019-05-21T10:37:21.210Z,100654.52
2019-05-21T10:41:46.145Z,100656.08
2019-05-21T10:46:11.459Z,100663.52
2019-05-21T10:50:35.545Z,100660.20
2019-05-21T10:54:59.456Z,100660.24
2019-05-21T10:59:23.969Z,100664.89
2019-05-21T11:04:05.807Z,100670.78
2019-05-21T11:08:30.212Z,100663.89
2019-05-21T11:12:54.416Z,100670.80
2019-05-21T11:17:18.911Z,100678.52
2019-05-21T11:21:43.108Z,100687.05
2019-05-21T11:26:07.592Z,100687.97
2019-05-21T11:30:31.798Z,100695.31
2019-05-21T11:34:55.976Z,100704.95
2019-05-21T11:39:21.035Z,100712.17
2019-05-21T11:43:45.142Z,100711.33
2019-05-21T11:48:10.339Z,100711.41
2019-05-21T11:52:34.789Z,100719.64
2019-05-21T11:56:58.932Z,100719.92
2019-05-21T12:01:23.211Z,100732.56
2019-05-21T12:05:47.427Z,100731.53
2019-05-21T12:10:11.681Z,100731.53
2019-05-21T12:14:35.814Z,100733.25
2019-05-21T12:18:59.741Z,100740.34
2019-05-21T12:23:23.867Z,100747.55
2019-05-21T12:27:47.767Z,100752.67
2019-05-21T12:32:12.033Z,100757.05
2019-05-21T12:36:36.483Z,100763.30
2019-05-21T12:41:00.348Z,100763.30
2019-05-21T12:45:24.683Z,100762.30
2019-05-21T12:49:48.805Z,100771.57
2019-05-21T12:54:13.222Z,100771.57
2019-05-21T12:58:37.426Z,100772.25
2019-05-21T13:03:01.923Z,100784.95
2019-05-21T13:07:25.824Z,100784.95
2019-05-21T13:11:49.778Z,100783.09
2019-05-21T13:16:13.983Z,100788.00
2019-05-21T13:20:38.159Z,100790.78
2019-05-21T13:25:02.263Z,100797.78
2019-05-21T13:29:26.747Z,100805.00
2019-05-21T13:33:50.665Z,100805.00
2019-05-21T13:38:16.251Z,100804.30
2019-05-21T13:42:40.652Z,100806.59
2019-05-21T13:47:06.069Z,100816.59
2019-05-21T13:51:30.532Z,100817.77
2019-05-21T13:55:54.421Z,100827.10
2019-05-21T14:00:24.933Z,100823.19
2019-05-21T14:04:48.929Z,100831.74
2019-05-21T14:09:13.351Z,100835.39
2019-05-21T14:13:37.385Z,100831.77
2019-05-21T14:18:01.792Z,100841.83
2019-05-21T14:22:25.707Z,100840.66
2019-05-21T14:26:49.949Z,100841.05
2019-05-21T14:31:14.571Z,100841.05
2019-05-21T14:35:38.883Z,100848.64
2019-05-21T14:40:03.069Z,100856.70
2019-05-21T14:44:27.034Z,100856.47
2019-05-21T14:48:51.165Z,100861.44
2019-05-21T14:53:15.613Z,100865.13
2019-05-21T14:57:39.546Z,100862.00
2019-05-21T15:02:04.128Z,100867.22
2019-05-21T15:06:28.317Z,100866.09
2019-05-21T15:10:53.133Z,100870.66
2019-05-21T15:15:17.414Z,100876.31
2019-05-21T15:19:43.414Z,100871.00
2019-05-21T15:24:08.814Z,100872.78
2019-05-21T15:28:32.900Z,100882.86
2019-05-21T15:32:57.052Z,100892.58
2019-05-21T15:37:21.584Z,100892.58
2019-05-21T15:41:45.466Z,100893.66
2019-05-21T15:46:09.648Z,100893.66
2019-05-21T15:50:34.944Z,100898.52
2019-05-21T15:54:58.969Z,100902.09
2019-05-21T15:59:23.328Z,100902.80
2019-05-21T16:03:47.379Z,100908.64
2019-05-21T16:08:11.534Z,100910.12
2019-05-21T16:12:35.731Z,100917.20
2019-05-21T16:16:59.615Z,100916.15
2019-05-21T16:21:23.796Z,100929.78
2019-05-21T16:25:48.097Z,100928.83
2019-05-21T16:30:13.376Z,100929.01
2019-05-21T16:34:38.105Z,100929.23
2019-05-21T16:39:02.681Z,100929.34
2019-05-21T16:43:26.990Z,100931.64
2019-05-21T16:47:51.128Z,100924.69
2019-05-21T16:52:15.321Z,100931.76
2019-05-21T16:56:39.574Z,100931.42
2019-05-21T17:01:05.735Z,100940.27
2019-05-21T17:05:30.752Z,100945.17
2019-05-21T17:09:54.851Z,100948.64
2019-05-21T17:14:18.729Z,100951.87
2019-05-21T17:18:42.693Z,100949.86
2019-05-21T17:23:07.117Z,100950.70
2019-05-21T17:27:33.195Z,100954.14
2019-05-21T17:31:58.517Z,100951.18
2019-05-21T17:36:23.137Z,100951.88
2019-05-21T17:40:48.450Z,100965.14
2019-05-21T17:45:13.551Z,100963.21
2019-05-21T17:49:38.112Z,100967.88
2019-05-21T17:54:03.932Z,100963.12
2019-05-21T17:58:28.740Z,100964.31
2019-05-21T18:02:52.918Z,100967.16
2019-05-21T18:07:18.774Z,100965.93
2019-05-21T18:11:45.466Z,100968.69
2019-05-21T18:16:11.304Z,100974.03
2019-05-21T18:20:35.614Z,100964.07
2019-05-21T18:25:00.385Z,100977.83
2019-05-21T18:29:24.848Z,100979.14
2019-05-21T18:33:49.037Z,100988.80
2019-05-21T18:38:13.422Z,100993.80
2019-05-21T18:42:37.650Z,100992.14
2019-05-21T18:47:05.457Z,100991.90
2019-05-21T18:56:02.883Z,100985.72
2019-05-21T19:00:28.620Z,100993.59
2019-05-21T19:04:52.853Z,101003.23
2019-05-21T19:09:17.624Z,101014.33
2019-05-21T19:13:43.357Z,101014.33
2019-05-21T19:18:08.470Z,101014.20
2019-05-21T19:22:32.582Z,101021.34
2019-05-21T19:26:56.469Z,101027.05
2019-05-21T19:31:20.966Z,101031.65
2019-05-21T19:35:45.232Z,101033.91
2019-05-21T19:40:11.551Z,101042.11
2019-05-21T19:44:36.335Z,101049.46
2019-05-21T19:49:00.509Z,101052.33
2019-05-21T19:53:24.641Z,101051.80
2019-05-21T19:57:49.743Z,101052.06
2019-05-21T20:02:15.077Z,101055.06
2019-05-21T20:06:39.551Z,101057.55
2019-05-21T20:11:04.763Z,101061.80
2019-05-21T20:15:29.647Z,101066.47
2019-05-21T20:19:54.402Z,101065.02
2019-05-21T20:24:18.544Z,101069.73
2019-05-21T20:28:43.502Z,101072.00
2019-05-21T20:33:09.502Z,101069.94
2019-05-21T20:37:36.256Z,101069.94
2019-05-21T20:42:01.360Z,101070.95
2019-05-21T20:46:25.540Z,101074.16
2019-05-21T20:50:49.956Z,101070.81
2019-05-21T20:55:15.597Z,101074.83
2019-05-21T20:59:39.957Z,101073.17
2019-05-21T21:04:06.365Z,101074.34
2019-05-21T21:08:32.729Z,101072.50
2019-05-21T21:12:57.052Z,101069.73
2019-05-21T21:17:21.260Z,101079.64
2019-05-21T21:21:45.536Z,101076.41
2019-05-21T21:26:11.639Z,101077.72
2019-05-21T21:30:36.214Z,101085.16
2019-05-21T21:35:00.568Z,101090.81
2019-05-21T21:39:25.771Z,101091.88
2019-05-21T21:43:50.660Z,101091.22
2019-05-21T21:48:16.580Z,101094.66
2019-05-21T21:52:41.366Z,101103.31
2019-05-21T21:57:05.951Z,101105.27
2019-05-21T22:01:51.161Z,101103.80
2019-05-21T22:06:19.093Z,101102.14
2019-05-21T22:10:45.938Z,101098.59
2019-05-21T22:15:10.499Z,101104.33
2019-05-21T22:19:35.113Z,101112.36
2019-05-21T22:23:59.496Z,101109.23
2019-05-21T22:28:23.974Z,101120.95
2019-05-21T22:32:48.288Z,101114.33
2019-05-21T22:37:14.977Z,101120.56
2019-05-21T22:41:39.158Z,101112.00
2019-05-21T22:46:03.336Z,101110.07
2019-05-21T22:50:29.017Z,101114.27
2019-05-21T22:54:53.275Z,101116.28
2019-05-21T22:59:19.304Z,101120.84
2019-05-21T23:03:45.340Z,101127.20
2019-05-21T23:08:10.108Z,101123.17
2019-05-21T23:12:34.352Z,101124.36
2019-05-21T23:16:58.405Z,101127.38
2019-05-21T23:21:25.028Z,101126.53
2019-05-21T23:25:49.239Z,101124.87
2019-05-21T23:30:15.776Z,101127.49
2019-05-21T23:34:41.139Z,101124.53
2019-05-21T23:39:09.301Z,101120.44
2019-05-21T23:43:33.767Z,101112.92
2019-05-21T23:47:58.285Z,101108.14
2019-05-21T23:52:23.868Z,101109.87
2019-05-21T23:56:49.808Z,101114.95
